Time;durP1;ratioP1;P1;durP2;ratioP2;P2;SDS_P1;SDS_P2;PMS_P1;PMS_P2;Temp;Humidity;BMP_temperature;BMP_pressure;BME280_temperature;BME280_humidity;BME280_pressure;Samples;Min_cycle;Max_cycle;Signal;HPM_P1;HPM_P2
2023/01/16 00:02:20;;;;;;;;;;;;;;;0.71;100.00;95329.88;5073370;28;20368;-74
2023/01/16 00:04:46;;;;;;;;;;;;;;;0.73;100.00;95337.44;5073949;28;20058;-74
2023/01/16 00:07:12;;;;;;;;;;;;;;;0.72;100.00;95313.44;5073359;28;20016;-73
2023/01/16 00:09:38;;;;;;;;;;;;;;;0.71;100.00;95311.03;5073852;28;19957;-72
2023/01/16 00:12:04;;;;;;;;;;;;;;;0.70;100.00;95312.03;5072188;28;19958;-73
2023/01/16 00:14:30;;;;;;;;;;;;;;;0.69;100.00;95308.63;5073319;28;19995;-75
2023/01/16 00:16:56;;;;;;;;;;;;;;;0.67;100.00;95304.63;5073839;28;19946;-74
2023/01/16 00:19:22;;;;;;;;;;;;;;;0.65;100.00;95309.19;5073653;28;19949;-74
2023/01/16 00:21:48;;;;;;;;;;;;;;;0.64;100.00;95299.84;5073211;28;20007;-73
2023/01/16 00:24:14;;;;;;;;;;;;;;;0.62;100.00;95294.09;5074553;28;20003;-73
2023/01/16 00:26:40;;;;;;;;;;;;;;;0.61;100.00;95293.28;5077516;28;19965;-72
2023/01/16 00:29:06;;;;;;;;;;;;;;;0.60;100.00;95286.53;5077300;28;20017;-74
2023/01/16 00:31:32;;;;;;;;;;;;;;;0.60;100.00;95291.69;5077422;28;19960;-73
2023/01/16 00:33:57;;;;;;;;;;;;;;;0.58;100.00;95289.28;5077560;28;20047;-72
2023/01/16 00:36:23;;;;;;;;;;;;;;;0.59;100.00;95279.78;5077498;28;20437;-76
2023/01/16 00:38:49;;;;;;;;;;;;;;;0.59;100.00;95270.25;5077358;28;20006;-75
2023/01/16 00:41:15;;;;;;;;;;;;;;;0.62;100.00;95276.81;5076566;28;20024;-74
2023/01/16 00:43:41;;;;;;;;;;;;;;;0.61;100.00;95272.66;5076461;28;20038;-73
2023/01/16 00:46:07;;;;;;;;;;;;;;;0.60;100.00;95266.66;5076675;28;19971;-74
2023/01/16 00:48:33;;;;;;;;;;;;;;;0.58;100.00;95254.94;5077145;28;20382;-75
2023/01/16 00:50:58;;;;;;;;;;;;;;;0.57;100.00;95251.56;5077007;28;20047;-74
2023/01/16 00:53:24;;;;;;;;;;;;;;;0.57;100.00;95240.47;5077056;28;20440;-74
2023/01/16 00:55:51;;;;;;;;;;;;;;;0.55;100.00;95239.84;5076844;28;19965;-74
2023/01/16 00:58:17;;;;;;;;;;;;;;;0.51;100.00;95233.47;5076576;28;19983;-75
2023/01/16 01:00:43;;;;;;;;;;;;;;;0.50;100.00;95242.97;5076671;28;19958;-74
2023/01/16 01:03:09;;;;;;;;;;;;;;;0.49;100.00;95238.81;5077150;28;19999;-74
2023/01/16 01:05:37;;;;;;;;;;;;;;;0.47;100.00;95234.81;5076660;28;19951;-74
2023/01/16 01:08:03;;;;;;;;;;;;;;;0.45;100.00;95237.56;5076785;28;19954;-74
2023/01/16 01:10:28;;;;;;;;;;;;;;;0.45;100.00;95231.63;5076922;28;20046;-74
2023/01/16 01:12:55;;;;;;;;;;;;;;;0.44;100.00;95217.13;5076263;28;20019;-75
2023/01/16 01:15:21;;;;;;;;;;;;;;;0.41;100.00;95215.72;5076257;28;19964;-74
2023/01/16 01:17:47;;;;;;;;;;;;;;;0.38;100.00;95206.56;5076431;28;19957;-74
2023/01/16 01:20:13;;;;;;;;;;;;;;;0.35;100.00;95196.59;5076598;28;19945;-74
2023/01/16 01:22:39;;;;;;;;;;;;;;;0.32;100.00;95186.69;5076551;28;19949;-74
2023/01/16 01:25:05;;;;;;;;;;;;;;;0.29;100.00;95194.75;5076448;28;19957;-74
2023/01/16 01:27:31;;;;;;;;;;;;;;;0.28;100.00;95180.28;5076093;28;19967;-75
2023/01/16 01:29:56;;;;;;;;;;;;;;;0.25;100.00;95183.22;5076718;28;19949;-74
2023/01/16 01:32:22;;;;;;;;;;;;;;;0.23;100.00;95182.59;5076263;28;20038;-73
2023/01/16 01:34:48;;;;;;;;;;;;;;;0.21;100.00;95182.03;5075952;28;19960;-74
2023/01/16 01:37:14;;;;;;;;;;;;;;;0.18;100.00;95178.00;5076691;28;19997;-73
2023/01/16 01:39:40;;;;;;;;;;;;;;;0.15;100.00;95169.88;5075903;28;19990;-74
2023/01/16 01:44:59;;;;;;;;;;;;;;;0.10;100.00;95165.25;5066767;28;19953;-74
2023/01/16 01:47:30;;;;;;;;;;;;;;;0.10;100.00;95161.88;5075881;28;19966;-74
2023/01/16 01:49:58;;;;;;;;;;;;;;;0.09;100.00;95163.66;5076055;28;19942;-74
2023/01/16 01:52:24;;;;;;;;;;;;;;;0.08;100.00;95158.69;5075809;28;19948;-74
2023/01/16 01:54:53;;;;;;;;;;;;;;;0.04;100.00;95147.94;5075728;28;20394;-74
2023/01/16 01:57:22;;;;;;;;;;;;;;;0.05;100.00;95130.72;5067427;28;19956;-74
2023/01/16 01:59:55;;;;;;;;;;;;;;;0.06;100.00;95127.94;5076222;28;19962;-74
2023/01/16 02:02:24;;;;;;;;;;;;;;;0.06;100.00;95114.25;5075694;28;20328;-74
2023/01/16 02:04:56;;;;;;;;;;;;;;;0.05;100.00;95113.47;5074455;28;19944;-74
2023/01/16 02:07:23;;;;;;;;;;;;;;;0.06;100.00;95121.97;5075443;28;19965;-74
2023/01/16 02:09:53;;;;;;;;;;;;;;;0.05;100.00;95108.31;5075484;28;19953;-74
2023/01/16 02:12:19;;;;;;;;;;;;;;;0.06;100.00;95112.47;5075753;28;20342;-74
2023/01/16 02:14:47;;;;;;;;;;;;;;;0.09;100.00;95104.38;5075424;28;19965;-74
2023/01/16 02:20:19;;;;;;;;;;;;;;;0.11;100.00;95083.59;5075220;28;19946;-74
2023/01/16 02:22:45;;;;;;;;;;;;;;;0.11;100.00;95081.00;5074840;28;19947;-74
2023/01/16 02:25:14;;;;;;;;;;;;;;;0.09;100.00;95057.97;5074353;28;19950;-74
2023/01/16 02:27:42;;;;;;;;;;;;;;;0.09;100.00;95059.78;5074990;28;19972;-74
2023/01/16 02:30:28;;;;;;;;;;;;;;;0.10;100.00;95051.03;5074936;28;19955;-74
2023/01/16 02:33:04;;;;;;;;;;;;;;;0.09;100.00;95032.22;5074620;28;19954;-74
2023/01/16 02:35:32;;;;;;;;;;;;;;;0.12;100.00;95034.41;5074855;28;19961;-74
2023/01/16 02:38:08;;;;;;;;;;;;;;;0.18;100.00;95035.44;5074872;28;19947;-74
2023/01/16 02:40:43;;;;;;;;;;;;;;;0.22;100.00;95028.94;5074203;28;19954;-74
2023/01/16 02:43:14;;;;;;;;;;;;;;;0.25;100.00;95007.13;5074662;28;19953;-73
2023/01/16 02:45:43;;;;;;;;;;;;;;;0.28;100.00;95001.59;5074029;28;19950;-74
2023/01/16 02:48:18;;;;;;;;;;;;;;;0.30;99.49;94979.81;5074329;28;20418;-74
2023/01/16 02:50:47;;;;;;;;;;;;;;;0.36;100.00;94986.00;5058731;28;20394;-74
2023/01/16 02:53:14;;;;;;;;;;;;;;;0.38;100.00;94974.50;5074654;28;19951;-74
2023/01/16 02:55:49;;;;;;;;;;;;;;;0.42;98.98;94959.44;5074613;28;19947;-74
2023/01/16 02:58:17;;;;;;;;;;;;;;;0.43;98.98;94953.28;5074447;28;19958;-74
2023/01/16 03:00:50;;;;;;;;;;;;;;;0.45;97.91;94933.25;5074642;28;19946;-74
2023/01/16 03:03:35;;;;;;;;;;;;;;;0.48;98.20;94935.44;5074437;28;19948;-74
2023/01/16 03:06:06;;;;;;;;;;;;;;;0.51;98.52;94927.34;5074009;28;19967;-74
2023/01/16 03:08:44;;;;;;;;;;;;;;;0.54;99.11;94924.34;5061210;28;19950;-73
2023/01/16 03:11:22;;;;;;;;;;;;;;;0.57;98.70;94926.56;5074339;28;19953;-75
2023/01/16 03:13:54;;;;;;;;;;;;;;;0.60;99.14;94923.59;5074352;28;19942;-74
2023/01/16 03:16:25;;;;;;;;;;;;;;;0.60;98.82;94918.44;5073955;28;19953;-74
2023/01/16 03:19:05;;;;;;;;;;;;;;;0.65;99.48;94920.44;5074680;28;19951;-74
2023/01/16 03:21:50;;;;;;;;;;;;;;;0.67;99.24;94912.50;5074126;28;19942;-75
2023/01/16 03:24:30;;;;;;;;;;;;;;;0.72;99.12;94897.25;5073846;28;19965;-74
2023/01/16 03:27:15;;;;;;;;;;;;;;;0.77;98.07;94874.22;5074248;28;19961;-75
2023/01/16 03:29:45;;;;;;;;;;;;;;;0.79;97.89;94873.03;5074045;28;19948;-74
2023/01/16 03:32:37;;;;;;;;;;;;;;;0.83;98.61;94878.63;5074126;28;19948;-74
2023/01/16 03:35:10;;;;;;;;;;;;;;;0.86;98.15;94867.91;5057081;28;19949;-74
2023/01/16 03:37:56;;;;;;;;;;;;;;;0.90;97.81;94852.81;5073970;28;19947;-74
2023/01/16 03:40:23;;;;;;;;;;;;;;;0.90;96.40;94843.28;5073731;28;20400;-74
2023/01/16 03:42:53;;;;;;;;;;;;;;;0.94;96.97;94834.16;5073743;28;20317;-74
2023/01/16 03:45:22;;;;;;;;;;;;;;;0.97;97.15;94831.19;5074124;28;19952;-74
2023/01/16 03:47:57;;;;;;;;;;;;;;;1.01;96.55;94819.47;5073690;28;19965;-74
2023/01/16 03:50:24;;;;;;;;;;;;;;;1.05;95.24;94798.44;5073494;28;19950;-74
2023/01/16 03:52:52;;;;;;;;;;;;;;;1.07;96.91;94810.16;5073719;28;19954;-74
2023/01/16 03:55:25;;;;;;;;;;;;;;;1.07;95.25;94793.84;5072955;28;19949;-74
2023/01/16 03:58:17;;;;;;;;;;;;;;;1.08;95.62;94788.50;5073362;28;19955;-74
2023/01/16 04:00:48;;;;;;;;;;;;;;;1.06;95.99;94779.38;5068331;28;19940;-74
2023/01/16 04:03:24;;;;;;;;;;;;;;;1.06;96.41;94780.16;5073758;28;19956;-75
2023/01/16 04:05:55;;;;;;;;;;;;;;;1.04;95.99;94765.88;5073580;28;19945;-74
2023/01/16 04:08:25;;;;;;;;;;;;;;;1.00;95.87;94748.19;5072541;28;19963;-74
2023/01/16 04:10:51;;;;;;;;;;;;;;;0.97;96.86;94758.94;5073326;28;19972;-74
2023/01/16 04:13:21;;;;;;;;;;;;;;;0.94;96.79;94751.56;5073598;28;20310;-74
2023/01/16 04:15:49;;;;;;;;;;;;;;;0.94;96.82;94740.47;5073372;28;19946;-74
2023/01/16 04:18:15;;;;;;;;;;;;;;;0.92;94.81;94716.63;5073237;28;19947;-74
2023/01/16 04:20:43;;;;;;;;;;;;;;;0.91;95.56;94712.47;5073427;28;19998;-75
2023/01/16 04:23:09;;;;;;;;;;;;;;;0.90;96.39;94716.84;5073996;28;19945;-74
2023/01/16 04:25:35;;;;;;;;;;;;;;;0.90;95.95;94705.72;5073380;28;20004;-74
2023/01/16 04:28:01;;;;;;;;;;;;;;;0.90;96.07;94695.41;5073282;28;19970;-75
2023/01/16 04:30:27;;;;;;;;;;;;;;;0.90;96.02;94685.88;5073367;28;19952;-74
2023/01/16 04:32:52;;;;;;;;;;;;;;;0.90;95.39;94665.22;5073068;28;20408;-74
2023/01/16 04:35:19;;;;;;;;;;;;;;;0.91;96.02;94658.28;5073525;28;20398;-75
2023/01/16 04:37:45;;;;;;;;;;;;;;;0.90;95.41;94656.69;5073535;28;19976;-74
2023/01/16 04:40:11;;;;;;;;;;;;;;;0.85;94.98;94646.19;5073350;28;19955;-74
2023/01/16 04:42:37;;;;;;;;;;;;;;;0.80;95.21;94631.31;5073361;28;19981;-75
2023/01/16 04:45:03;;;;;;;;;;;;;;;0.75;95.66;94621.59;5072133;28;19961;-74
2023/01/16 04:47:29;;;;;;;;;;;;;;;0.74;95.25;94611.50;5072839;28;19962;-75
2023/01/16 04:49:55;;;;;;;;;;;;;;;0.73;95.32;94615.06;5073710;28;19961;-74
2023/01/16 04:52:20;;;;;;;;;;;;;;;0.72;96.67;94627.16;5072988;28;19997;-74
2023/01/16 04:54:46;;;;;;;;;;;;;;;0.69;94.91;94601.75;5072910;28;19947;-74
2023/01/16 04:57:12;;;;;;;;;;;;;;;0.70;95.41;94600.78;5073168;28;19959;-75
2023/01/16 04:59:38;;;;;;;;;;;;;;;0.69;95.32;94582.91;5073543;28;19945;-74
2023/01/16 05:02:04;;;;;;;;;;;;;;;0.70;96.95;94594.81;5072825;28;19963;-74
2023/01/16 05:04:30;;;;;;;;;;;;;;;0.73;97.20;94589.25;5072810;28;19962;-74
2023/01/16 05:06:56;;;;;;;;;;;;;;;0.73;97.36;94579.72;5072677;28;20329;-74
2023/01/16 05:09:22;;;;;;;;;;;;;;;0.75;97.20;94574.38;5073152;28;19969;-74
2023/01/16 05:11:48;;;;;;;;;;;;;;;0.76;96.70;94573.38;5076097;28;19957;-74
2023/01/16 05:14:13;;;;;;;;;;;;;;;0.73;97.14;94566.81;5076326;28;19950;-74
2023/01/16 05:16:42;;;;;;;;;;;;;;;0.74;96.99;94563.25;5076436;28;19995;-74
2023/01/16 05:19:09;;;;;;;;;;;;;;;0.73;95.99;94547.97;5076319;28;19964;-74
2023/01/16 05:21:35;;;;;;;;;;;;;;;0.72;96.84;94542.03;5076426;28;19949;-73
2023/01/16 05:24:01;;;;;;;;;;;;;;;0.71;96.25;94535.28;5076258;28;19957;-74
2023/01/16 05:26:27;;;;;;;;;;;;;;;0.69;96.62;94532.09;5075554;28;20405;-74
2023/01/16 05:28:53;;;;;;;;;;;;;;;0.67;96.63;94518.63;5076104;28;20004;-74
2023/01/16 05:31:19;;;;;;;;;;;;;;;0.67;97.33;94518.63;5076180;28;20325;-74
2023/01/16 05:33:45;;;;;;;;;;;;;;;0.66;97.35;94509.31;5076468;28;19952;-74
2023/01/16 05:36:11;;;;;;;;;;;;;;;0.68;97.42;94501.38;5076064;28;19958;-74
2023/01/16 05:38:36;;;;;;;;;;;;;;;0.69;97.13;94498.56;5076194;28;20409;-74
2023/01/16 05:41:02;;;;;;;;;;;;;;;0.68;95.80;94473.78;5076159;28;19996;-74
2023/01/16 05:43:28;;;;;;;;;;;;;;;0.66;95.85;94472.41;5076195;28;19954;-74
2023/01/16 05:45:54;;;;;;;;;;;;;;;0.63;95.31;94458.16;5075931;28;19957;-74
2023/01/16 05:48:20;;;;;;;;;;;;;;;0.62;95.85;94463.50;5076514;28;19969;-74
2023/01/16 05:50:46;;;;;;;;;;;;;;;0.56;95.05;94442.66;5074481;28;20369;-74
2023/01/16 05:53:12;;;;;;;;;;;;;;;0.54;95.76;94438.72;5075770;28;19955;-74
2023/01/16 05:55:45;;;;;;;;;;;;;;;0.52;95.40;94433.75;5074415;28;19945;-74
2023/01/16 05:58:12;;;;;;;;;;;;;;;0.51;96.32;94432.19;5075656;28;19955;-75
2023/01/16 06:00:38;;;;;;;;;;;;;;;0.49;95.80;94425.66;5075588;28;19957;-74
2023/01/16 06:03:04;;;;;;;;;;;;;;;0.48;95.23;94404.22;5075688;28;19959;-74
2023/01/16 06:05:30;;;;;;;;;;;;;;;0.46;96.36;94402.84;5075749;28;19982;-74
2023/01/16 06:07:56;;;;;;;;;;;;;;;0.49;96.40;94402.47;5075152;28;20013;-74
2023/01/16 06:10:23;;;;;;;;;;;;;;;0.52;96.69;94386.56;5074796;28;19959;-74
2023/01/16 06:12:48;;;;;;;;;;;;;;;0.53;96.17;94383.00;5075362;28;19987;-74
2023/01/16 06:15:14;;;;;;;;;;;;;;;0.55;96.07;94373.28;5075325;28;19953;-74
2023/01/16 06:17:40;;;;;;;;;;;;;;;0.56;95.46;94372.25;5075432;28;19986;-74
2023/01/16 06:20:06;;;;;;;;;;;;;;;0.57;94.79;94351.44;5075344;28;19955;-75
2023/01/16 06:22:32;;;;;;;;;;;;;;;0.56;95.32;94349.84;5074597;28;19942;-74
2023/01/16 06:24:58;;;;;;;;;;;;;;;0.59;94.88;94340.91;5075631;28;20362;-74
2023/01/16 06:27:24;;;;;;;;;;;;;;;0.60;93.37;94332.94;5074852;28;20072;-74
2023/01/16 06:29:50;;;;;;;;;;;;;;;0.61;94.74;94338.91;5075098;28;20008;-75
2023/01/16 06:32:16;;;;;;;;;;;;;;;0.63;94.97;94323.22;5075139;28;20005;-74
2023/01/16 06:34:42;;;;;;;;;;;;;;;0.62;93.93;94301.81;5074759;28;19949;-74
2023/01/16 06:37:08;;;;;;;;;;;;;;;0.64;94.47;94299.81;5074181;28;19955;-74
2023/01/16 06:39:34;;;;;;;;;;;;;;;0.67;95.26;94301.94;5075122;28;19953;-73
2023/01/16 06:42:03;;;;;;;;;;;;;;;0.69;94.44;94287.06;5075075;28;20052;-73
2023/01/16 06:44:29;;;;;;;;;;;;;;;0.69;93.28;94291.44;5075253;28;19957;-74
2023/01/16 06:46:55;;;;;;;;;;;;;;;0.68;92.19;94282.91;5074890;28;20374;-75
2023/01/16 06:49:20;;;;;;;;;;;;;;;0.69;92.82;94283.69;5074774;28;20412;-74
2023/01/16 06:51:46;;;;;;;;;;;;;;;0.67;91.40;94260.69;5074678;28;19986;-74
2023/01/16 06:54:12;;;;;;;;;;;;;;;0.67;91.89;94268.41;5073457;28;20429;-74
2023/01/16 06:56:38;;;;;;;;;;;;;;;0.67;91.95;94260.69;5074396;28;19946;-74
2023/01/16 06:59:04;;;;;;;;;;;;;;;0.67;91.01;94245.22;5074276;28;20003;-74
2023/01/16 07:01:30;;;;;;;;;;;;;;;0.67;91.97;94239.28;5074411;28;19998;-74
2023/01/16 07:03:56;;;;;;;;;;;;;;;0.63;91.54;94227.78;5074300;28;19949;-74
2023/01/16 07:06:22;;;;;;;;;;;;;;;0.63;92.61;94240.69;5074405;28;19951;-74
2023/01/16 07:08:50;;;;;;;;;;;;;;;0.64;92.47;94242.28;5074079;28;20427;-75
2023/01/16 07:11:15;;;;;;;;;;;;;;;0.65;92.61;94241.25;5074153;28;19949;-74
2023/01/16 07:13:41;;;;;;;;;;;;;;;0.66;91.97;94232.53;5074081;28;20371;-74
2023/01/16 07:24:29;;;;;;;;;;;;;;;0.66;92.28;94217.06;5073957;28;19948;-76
2023/01/16 07:26:59;;;;;;;;;;;;;;;0.69;92.97;94219.22;5074415;28;20279;-74
2023/01/16 07:29:27;;;;;;;;;;;;;;;0.71;93.58;94212.84;5073009;28;19961;-74
2023/01/16 07:31:54;;;;;;;;;;;;;;;0.71;91.58;94194.00;5073950;28;19949;-74
2023/01/16 07:34:20;;;;;;;;;;;;;;;0.72;91.05;94185.28;5073026;28;20529;-74
2023/01/16 07:36:46;;;;;;;;;;;;;;;0.73;91.60;94179.88;5073740;28;19947;-74
2023/01/16 07:39:12;;;;;;;;;;;;;;;0.73;92.10;94172.16;5073820;28;19971;-73
2023/01/16 07:41:38;;;;;;;;;;;;;;;0.72;92.15;94180.13;5074004;28;20013;-74
2023/01/16 07:44:05;;;;;;;;;;;;;;;0.71;91.02;94155.31;5073797;28;20434;-74
2023/01/16 07:46:32;;;;;;;;;;;;;;;0.70;91.43;94158.91;5073606;28;19977;-75
2023/01/16 07:48:57;;;;;;;;;;;;;;;0.72;92.20;94162.06;5073657;28;19953;-75
2023/01/16 07:51:24;;;;;;;;;;;;;;;0.71;91.25;94145.00;5073560;28;19989;-74
2023/01/16 07:53:50;;;;;;;;;;;;;;;0.75;92.07;94148.72;5073561;28;19949;-74
2023/01/16 07:56:16;;;;;;;;;;;;;;;0.75;90.80;94134.03;5073717;28;20340;-74
2023/01/16 07:58:42;;;;;;;;;;;;;;;0.78;91.26;94127.69;5073894;28;20037;-74
2023/01/16 08:01:09;;;;;;;;;;;;;;;0.81;91.16;94122.06;5072504;28;20340;-74
2023/01/16 08:03:35;;;;;;;;;;;;;;;0.86;90.33;94111.13;5073346;28;19945;-74
2023/01/16 08:06:02;;;;;;;;;;;;;;;0.87;91.11;94117.88;5073833;28;19951;-74
2023/01/16 08:08:28;;;;;;;;;;;;;;;0.92;92.79;94115.41;5073386;28;19962;-74
2023/01/16 08:10:55;;;;;;;;;;;;;;;0.96;93.25;94122.50;5073570;28;19965;-74
2023/01/16 08:13:21;;;;;;;;;;;;;;;0.99;93.23;94118.72;5073652;28;19954;-74
2023/01/16 08:15:47;;;;;;;;;;;;;;;1.01;93.37;94104.59;5073553;28;19999;-74
2023/01/16 08:18:13;;;;;;;;;;;;;;;1.04;93.53;94097.44;5073291;28;19950;-73
2023/01/16 08:20:40;;;;;;;;;;;;;;;1.04;92.86;94090.47;5073593;28;20405;-74
2023/01/16 08:23:06;;;;;;;;;;;;;;;1.02;93.41;94082.94;5073414;28;19952;-73
2023/01/16 08:25:32;;;;;;;;;;;;;;;1.04;93.65;94085.31;5073678;28;19955;-73
2023/01/16 08:27:58;;;;;;;;;;;;;;;1.04;93.30;94082.72;5073089;28;19968;-73
2023/01/16 08:30:24;;;;;;;;;;;;;;;1.05;93.22;94076.56;5073306;28;20412;-74
2023/01/16 08:32:56;;;;;;;;;;;;;;;1.00;90.22;94042.88;5073110;28;20308;-74
2023/01/16 08:35:22;;;;;;;;;;;;;;;0.96;90.54;94037.34;5073158;28;19955;-73
2023/01/16 08:37:49;;;;;;;;;;;;;;;0.96;90.53;94042.50;5073295;28;20001;-73
2023/01/16 08:40:15;;;;;;;;;;;;;;;0.97;91.28;94051.84;5072996;28;19958;-73
2023/01/16 08:53:40;;;;;;;;;;;;;;;1.01;91.37;94071.06;5077489;28;20406;-73
2023/01/16 08:56:06;;;;;;;;;;;;;;;1.05;89.89;94058.50;5076785;28;19955;-73
2023/01/16 08:58:32;;;;;;;;;;;;;;;1.06;91.07;94074.78;5075891;28;19958;-73
2023/01/16 09:00:58;;;;;;;;;;;;;;;1.08;90.29;94075.34;5076674;28;19960;-73
2023/01/16 09:03:24;;;;;;;;;;;;;;;1.08;90.26;94078.72;5062137;28;19979;-73
2023/01/16 09:05:50;;;;;;;;;;;;;;;1.09;90.96;94089.81;5076602;28;19991;-73
2023/01/16 09:08:16;;;;;;;;;;;;;;;1.08;90.15;94077.94;5076429;28;20401;-74
2023/01/16 09:13:48;;;;;;;;;;;;;;;1.06;91.39;94087.69;5076800;28;20008;-74
2023/01/16 09:16:12;;;;;;;;;;;;;;;1.07;89.89;94051.34;5076647;28;20417;-74
2023/01/16 09:18:38;;;;;;;;;;;;;;;1.10;89.88;94044.94;5076505;28;19994;-73
2023/01/16 09:21:04;;;;;;;;;;;;;;;1.11;87.77;94010.38;5109660;28;19959;-73
2023/01/16 09:23:29;;;;;;;;;;;;;;;1.18;89.07;94026.59;5076084;28;19951;-73
2023/01/16 09:25:55;;;;;;;;;;;;;;;1.24;87.76;94010.22;5076088;28;20431;-73
2023/01/16 09:28:21;;;;;;;;;;;;;;;1.33;88.16;94008.13;5075882;28;20015;-73
2023/01/16 09:30:47;;;;;;;;;;;;;;;1.42;87.80;94006.78;5076186;28;19985;-73
2023/01/16 09:33:13;;;;;;;;;;;;;;;1.52;86.10;93975.25;5075966;28;19948;-72
2023/01/16 09:35:39;;;;;;;;;;;;;;;1.65;85.57;93959.53;5075921;28;19951;-72
2023/01/16 09:38:05;;;;;;;;;;;;;;;1.77;83.79;93941.47;5076241;28;20008;-72
2023/01/16 09:40:31;;;;;;;;;;;;;;;1.90;82.93;93937.88;5076259;28;19956;-72
2023/01/16 09:45:49;;;;;;;;;;;;;;;2.03;83.84;93930.66;5064800;28;19951;-71
2023/01/16 09:48:23;;;;;;;;;;;;;;;2.08;83.39;93931.78;5075439;28;19974;-71
2023/01/16 09:50:51;;;;;;;;;;;;;;;2.12;84.70;93938.88;5076153;28;19943;-71
2023/01/16 09:58:57;;;;;;;;;;;;;;;2.17;82.87;93918.28;5075577;28;19953;-71
2023/01/16 10:01:26;;;;;;;;;;;;;;;2.20;85.40;93941.09;5076078;28;19954;-71
2023/01/16 10:03:57;;;;;;;;;;;;;;;2.28;83.77;93915.91;5075676;28;19956;-71
2023/01/16 10:06:43;;;;;;;;;;;;;;;2.32;84.18;93909.28;5074650;28;19962;-72
2023/01/16 10:09:12;;;;;;;;;;;;;;;2.33;80.67;93865.09;5075501;28;19978;-72
2023/01/16 10:11:56;;;;;;;;;;;;;;;2.36;79.55;93861.25;5075870;28;19950;-72
2023/01/16 10:14:22;;;;;;;;;;;;;;;2.38;81.63;93872.94;5075371;28;20319;-71
2023/01/16 10:16:54;;;;;;;;;;;;;;;2.40;79.17;93847.63;5075458;28;19945;-72
2023/01/16 10:19:44;;;;;;;;;;;;;;;2.43;81.37;93862.69;5075182;28;19954;-72
2023/01/16 10:22:13;;;;;;;;;;;;;;;2.45;81.43;93865.03;5075184;28;19949;-72
2023/01/16 10:24:47;;;;;;;;;;;;;;;2.47;83.73;93875.94;5075174;28;19960;-71
2023/01/16 10:27:32;;;;;;;;;;;;;;;2.45;81.01;93852.09;5074894;28;19948;-72
2023/01/16 10:30:01;;;;;;;;;;;;;;;2.51;78.38;93816.78;5075091;28;19943;-72
2023/01/16 10:32:38;;;;;;;;;;;;;;;2.55;79.48;93825.66;5075254;28;19957;-72
2023/01/16 10:35:04;;;;;;;;;;;;;;;2.60;74.66;93781.75;5063738;28;19958;-71
2023/01/16 10:37:31;;;;;;;;;;;;;;;2.66;75.81;93780.81;5075222;28;19959;-72
2023/01/16 10:39:58;;;;;;;;;;;;;;;2.73;77.03;93802.16;5075093;28;20315;-71
2023/01/16 10:50:45;;;;;;;;;;;;;;;2.97;78.65;93807.97;5074804;28;20305;-72
2023/01/16 10:53:11;;;;;;;;;;;;;;;2.99;78.39;93794.81;5074808;28;19949;-72
2023/01/16 10:55:46;;;;;;;;;;;;;;;3.01;79.58;93813.47;5074722;28;19957;-72
2023/01/16 10:58:18;;;;;;;;;;;;;;;3.01;79.15;93801.31;5074931;28;19945;-72
2023/01/16 11:00:44;;;;;;;;;;;;;;;3.01;78.63;93785.78;5074352;28;19943;-72
2023/01/16 11:03:14;;;;;;;;;;;;;;;3.03;79.69;93785.53;5074329;28;19950;-72
2023/01/16 11:05:40;;;;;;;;;;;;;;;3.02;79.96;93792.53;5073837;28;19979;-72
2023/01/16 11:08:10;;;;;;;;;;;;;;;3.04;80.59;93798.25;5073268;28;19968;-72
2023/01/16 11:10:36;;;;;;;;;;;;;;;3.04;81.03;93790.50;5074144;28;19947;-72
2023/01/16 11:18:44;;;;;;;;;;;;;;;3.05;81.90;93779.09;5065634;28;20336;-72
2023/01/16 11:21:13;;;;;;;;;;;;;;;3.06;82.34;93782.47;5074291;28;19989;-72
2023/01/16 11:23:41;;;;;;;;;;;;;;;3.06;82.17;93772.13;5074878;28;20011;-72
2023/01/16 11:26:07;;;;;;;;;;;;;;;3.10;83.37;93775.03;5073905;28;20315;-72
2023/01/16 11:28:34;;;;;;;;;;;;;;;3.09;82.70;93757.91;5073930;28;19970;-72
2023/01/16 11:31:02;;;;;;;;;;;;;;;3.12;83.57;93762.63;5073790;28;19944;-72
2023/01/16 11:33:33;;;;;;;;;;;;;;;3.13;83.88;93759.00;5073057;28;19948;-72
2023/01/16 11:36:01;;;;;;;;;;;;;;;3.15;81.51;93726.69;5073873;28;19960;-72
2023/01/16 11:38:28;;;;;;;;;;;;;;;3.16;82.45;93737.84;5073944;28;20409;-72
2023/01/16 11:40:55;;;;;;;;;;;;;;;3.14;82.31;93719.94;5073864;28;19967;-72
2023/01/16 11:46:20;;;;;;;;;;;;;;;3.14;82.39;93707.00;5073664;28;19946;-72
2023/01/16 11:48:51;;;;;;;;;;;;;;;3.21;83.56;93712.00;5074032;28;19973;-72
2023/01/16 11:51:18;;;;;;;;;;;;;;;3.29;84.79;93726.34;5073680;28;20316;-72
2023/01/16 11:53:46;;;;;;;;;;;;;;;3.30;83.64;93694.22;5073621;28;20412;-72
2023/01/16 11:56:15;;;;;;;;;;;;;;;3.36;85.02;93706.22;5073761;28;20310;-72
2023/01/16 11:58:51;;;;;;;;;;;;;;;3.40;84.23;93687.41;5073516;28;20432;-71
2023/01/16 12:01:20;;;;;;;;;;;;;;;3.42;84.48;93681.97;5073356;28;19951;-71
2023/01/16 12:03:45;;;;;;;;;;;;;;;3.44;85.44;93679.91;5073523;28;19951;-71
2023/01/16 12:06:18;;;;;;;;;;;;;;;3.43;85.76;93688.72;5073675;28;19950;-71
2023/01/16 12:08:56;;;;;;;;;;;;;;;3.41;86.19;93683.00;5073446;28;20343;-72
2023/01/16 12:11:28;;;;;;;;;;;;;;;3.42;87.09;93679.38;5073544;28;19951;-71
2023/01/16 12:14:18;;;;;;;;;;;;;;;3.44;86.90;93672.13;5073529;28;19949;-71
2023/01/16 12:16:55;;;;;;;;;;;;;;;3.44;86.97;93678.13;5073576;28;20439;-71
2023/01/16 12:19:33;;;;;;;;;;;;;;;3.40;86.99;93658.91;5072638;28;19954;-71
2023/01/16 12:22:09;;;;;;;;;;;;;;;3.42;87.82;93662.03;5068355;28;19967;-71
2023/01/16 12:24:44;;;;;;;;;;;;;;;3.40;87.51;93655.50;5063055;28;19949;-71
2023/01/16 12:27:22;;;;;;;;;;;;;;;3.38;87.75;93649.78;5077601;28;19949;-71
2023/01/16 12:29:58;;;;;;;;;;;;;;;3.39;88.61;93652.16;5077411;28;20336;-71
2023/01/16 12:32:27;;;;;;;;;;;;;;;3.44;88.27;93647.03;5077311;28;19956;-71
2023/01/16 12:35:13;;;;;;;;;;;;;;;3.51;88.27;93630.50;5077238;28;20322;-71
2023/01/16 12:37:53;;;;;;;;;;;;;;;3.55;87.71;93623.81;5077586;28;20305;-71
2023/01/16 12:40:38;;;;;;;;;;;;;;;3.59;87.12;93606.75;5063254;28;19949;-71
2023/01/16 12:43:19;;;;;;;;;;;;;;;3.63;87.83;93613.81;5037311;28;19967;-71
2023/01/16 12:46:00;;;;;;;;;;;;;;;3.80;87.14;93602.53;5037630;28;19953;-71
2023/01/16 12:48:32;;;;;;;;;;;;;;;3.90;87.00;93602.66;5037109;28;20448;-72
2023/01/16 12:50:57;;;;;;;;;;;;;;;3.94;86.31;93579.59;5037129;28;20319;-71
2023/01/16 12:53:42;;;;;;;;;;;;;;;4.00;87.01;93587.19;5037169;28;19947;-71
2023/01/16 12:56:26;;;;;;;;;;;;;;;4.03;85.99;93570.34;5037069;28;19953;-71
2023/01/16 12:59:00;;;;;;;;;;;;;;;4.07;87.12;93590.38;5037094;28;19947;-71
2023/01/16 13:01:33;;;;;;;;;;;;;;;4.15;86.92;93577.97;5036751;28;20443;-72
2023/01/16 13:04:02;;;;;;;;;;;;;;;4.22;86.92;93566.34;5036865;28;19950;-71
2023/01/16 13:06:37;;;;;;;;;;;;;;;4.24;84.94;93540.16;5036398;28;20450;-72
2023/01/16 13:09:09;;;;;;;;;;;;;;;4.28;84.98;93525.66;5036434;28;20347;-71
2023/01/16 13:14:30;;;;;;;;;;;;;;;4.36;84.47;93514.03;5036755;28;20417;-71
2023/01/16 13:17:01;;;;;;;;;;;;;;;4.41;85.18;93517.44;5036645;28;19953;-72
2023/01/16 13:19:29;;;;;;;;;;;;;;;4.48;84.34;93520.59;5036316;28;20416;-72
2023/01/16 13:22:14;;;;;;;;;;;;;;;4.63;84.09;93509.50;5036617;28;19962;-71
2023/01/16 13:24:49;;;;;;;;;;;;;;;4.87;83.69;93503.88;5036526;28;20340;-71
2023/01/16 13:27:17;;;;;;;;;;;;;;;5.02;81.94;93477.97;5036272;28;19948;-71
2023/01/16 13:29:49;;;;;;;;;;;;;;;5.09;81.03;93467.34;5036257;28;19962;-72
2023/01/16 13:32:23;;;;;;;;;;;;;;;5.12;81.85;93468.63;5036187;28;20296;-71
2023/01/16 13:34:57;;;;;;;;;;;;;;;5.12;79.99;93460.84;5036181;28;19941;-72
2023/01/16 13:37:23;;;;;;;;;;;;;;;5.06;79.13;93437.47;5036288;28;19950;-71
2023/01/16 13:40:27;;;;;;;;;;;;;;;4.99;79.31;93430.97;5036591;28;20316;-71
2023/01/16 13:45:59;;;;;;;;;;;;;;;4.86;79.72;93433.00;5054328;28;20369;-72
2023/01/16 13:48:29;;;;;;;;;;;;;;;4.77;80.22;93444.94;5069790;28;19980;-72
2023/01/16 13:50:59;;;;;;;;;;;;;;;4.68;80.35;93438.66;5075440;28;20355;-72
2023/01/16 13:53:27;;;;;;;;;;;;;;;4.67;80.31;93450.09;5075630;28;20405;-72
2023/01/16 13:56:26;;;;;;;;;;;;;;;4.60;80.51;93449.53;5075763;28;19948;-72
2023/01/16 13:59:02;;;;;;;;;;;;;;;4.57;81.44;93468.22;5042173;28;19955;-72
2023/01/16 14:01:31;;;;;;;;;;;;;;;4.35;81.13;93453.59;5076023;28;19949;-72
2023/01/16 14:04:10;;;;;;;;;;;;;;;4.32;82.53;93474.06;5075833;28;19946;-72
2023/01/16 14:06:49;;;;;;;;;;;;;;;4.23;84.49;93500.47;5062715;28;19944;-72